Time;durP1;ratioP1;P1;durP2;ratioP2;P2;SDS_P1;SDS_P2;PMS_P1;PMS_P2;Temp;Humidity;BMP_temperature;BMP_pressure;BME280_temperature;BME280_humidity;BME280_pressure;Samples;Min_cycle;Max_cycle;Signal;HPM_P1;HPM_P2
2022/01/17 00:01:28;;;;;;;30.98;19.85;;;;;;;7.40;90.18;102936.22;5033689;28;20053;-62
2022/01/17 00:03:56;;;;;;;34.83;20.75;;;;;;;7.36;90.72;102934.19;5032067;28;20403;-61
2022/01/17 00:06:24;;;;;;;34.40;20.13;;;;;;;7.64;89.84;102926.91;5032833;28;20077;-61
2022/01/17 00:08:51;;;;;;;30.80;19.58;;;;;;;7.57;89.18;102928.09;5031706;28;20046;-62
2022/01/17 00:11:19;;;;;;;35.38;19.83;;;;;;;7.39;89.67;102945.50;5014502;28;20061;-61
2022/01/17 00:13:48;;;;;;;31.52;19.55;;;;;;;7.52;89.16;102945.28;5024233;28;20496;-63
2022/01/17 00:21:12;;;;;;;30.98;19.88;;;;;;;7.04;91.37;102947.41;5031727;28;20058;-61
2022/01/17 00:23:40;;;;;;;33.65;19.15;;;;;;;7.26;91.90;102950.38;5032819;28;20141;-61
2022/01/17 00:26:07;;;;;;;39.03;21.25;;;;;;;7.19;91.59;102942.28;5034111;28;20057;-61
2022/01/17 00:28:34;;;;;;;36.40;20.27;;;;;;;7.29;91.40;102941.69;5033155;28;20049;-62
2022/01/17 00:31:04;;;;;;;34.03;20.50;;;;;;;7.52;90.85;102934.31;5034450;28;20060;-62
2022/01/17 00:33:33;;;;;;;30.50;19.80;;;;;;;7.62;89.97;102939.16;5034260;28;20488;-62
2022/01/17 00:36:01;;;;;;;31.27;19.65;;;;;;;7.77;89.11;102926.66;5034174;28;20049;-62
2022/01/17 00:38:28;;;;;;;31.88;19.73;;;;;;;7.60;89.14;102927.63;5034023;28;20057;-62
2022/01/17 00:40:55;;;;;;;34.85;20.38;;;;;;;7.75;89.14;102930.72;5033911;28;20066;-61
2022/01/17 00:43:23;;;;;;;33.38;19.17;;;;;;;7.81;88.37;102921.53;5033116;28;20038;-61
2022/01/17 00:45:50;;;;;;;30.95;19.40;;;;;;;7.87;88.13;102918.63;5034540;28;20507;-61
2022/01/17 00:48:18;;;;;;;32.58;19.70;;;;;;;7.78;87.93;102913.75;5034316;28;20042;-61
2022/01/17 00:50:47;;;;;;;33.53;20.02;;;;;;;7.79;88.09;102920.94;5032465;28;20061;-63
2022/01/17 00:53:14;;;;;;;34.53;19.60;;;;;;;7.76;88.31;102930.47;5034150;28;20065;-61
2022/01/17 00:55:41;;;;;;;34.25;19.50;;;;;;;7.76;87.92;102932.34;5033284;28;20377;-62
2022/01/17 00:58:09;;;;;;;32.65;21.17;;;;;;;7.44;89.16;102948.38;5032309;28;20057;-63
2022/01/17 01:00:37;;;;;;;33.67;20.92;;;;;;;7.73;89.12;102930.94;5033874;28;20057;-61
2022/01/17 01:03:05;;;;;;;29.52;19.35;;;;;;;7.87;87.79;102931.50;5033189;28;20057;-62
2022/01/17 01:05:33;;;;;;;33.42;20.17;;;;;;;7.87;87.14;102935.09;5033659;28;20060;-61
2022/01/17 01:08:00;;;;;;;32.92;21.38;;;;;;;7.38;89.45;102937.50;5033688;28;20060;-62
2022/01/17 01:10:27;;;;;;;33.03;20.63;;;;;;;7.48;89.69;102938.59;5032258;28;20492;-62
2022/01/17 01:12:55;;;;;;;31.52;19.33;;;;;;;7.52;89.28;102927.97;5032730;28;20611;-61
2022/01/17 01:29:29;;;;;;;35.65;20.55;;;;;;;7.87;87.30;102929.63;5035937;28;20056;-61
2022/01/17 01:32:02;;;;;;;32.38;19.52;;;;;;;7.78;87.96;102931.06;5036326;28;20057;-60
2022/01/17 01:34:40;;;;;;;32.55;20.08;;;;;;;7.60;88.00;102928.44;5036995;28;20404;-62
2022/01/17 01:37:08;;;;;;;28.35;19.30;;;;;;;7.57;88.89;102925.34;5036588;28;20053;-62
2022/01/17 01:39:37;;;;;;;37.08;20.60;;;;;;;7.45;89.57;102939.06;5036993;28;20058;-61
2022/01/17 01:42:13;;;;;;;31.20;20.15;;;;;;;7.38;90.43;102932.03;5018963;28;20057;-61
2022/01/17 01:44:40;;;;;;;28.17;18.88;;;;;;;7.68;89.47;102930.00;5036562;28;20049;-61
2022/01/17 01:47:07;;;;;;;31.40;19.33;;;;;;;7.56;89.07;102930.03;5036856;28;20044;-61
2022/01/17 01:49:35;;;;;;;28.50;18.45;;;;;;;7.82;88.36;102923.19;5036696;28;20101;-62
2022/01/17 01:52:02;;;;;;;29.08;19.00;;;;;;;7.70;88.33;102931.44;5023452;28;20571;-62
2022/01/17 01:54:30;;;;;;;30.80;19.60;;;;;;;7.67;88.47;102931.09;5040280;28;20049;-63
2022/01/17 01:56:57;;;;;;;29.95;19.80;;;;;;;7.86;88.39;102943.56;5025336;28;20060;-62
2022/01/17 01:59:25;;;;;;;33.17;19.55;;;;;;;7.71;88.26;102943.22;5014107;28;20053;-61
2022/01/17 02:01:52;;;;;;;31.85;19.20;;;;;;;7.99;87.76;102940.56;4999010;28;20058;-61
2022/01/17 02:04:20;;;;;;;30.10;19.38;;;;;;;8.24;86.65;102952.09;5022565;28;20080;-62
2022/01/17 02:06:47;;;;;;;29.40;18.88;;;;;;;8.05;86.41;102949.72;5036635;28;20072;-61
2022/01/17 02:09:14;;;;;;;32.58;20.23;;;;;;;7.96;87.17;102952.03;5035312;28;20049;-62
2022/01/17 02:11:41;;;;;;;33.53;20.52;;;;;;;7.60;88.35;102958.63;5035006;28;20576;-61
2022/01/17 02:14:09;;;;;;;34.40;20.08;;;;;;;7.58;89.51;102954.47;5030630;28;20049;-61
2022/01/17 02:16:38;;;;;;;32.97;19.95;;;;;;;7.56;89.36;102959.34;5036813;28;20522;-61
2022/01/17 02:19:05;;;;;;;35.38;20.65;;;;;;;7.52;89.48;102959.00;5034714;28;20065;-61
2022/01/17 02:21:44;;;;;;;35.03;20.67;;;;;;;7.61;90.08;102960.31;5036066;28;20053;-61
2022/01/17 02:24:18;;;;;;;37.22;20.80;;;;;;;7.83;89.35;102949.53;5036100;28;20136;-61
2022/01/17 02:26:47;;;;;;;31.65;19.50;;;;;;;7.60;89.14;102953.13;5034460;28;20053;-62
2022/01/17 02:29:15;;;;;;;31.27;19.88;;;;;;;7.74;89.00;102951.81;5036063;28;20056;-62
2022/01/17 02:31:43;;;;;;;37.45;20.60;;;;;;;7.60;89.62;102949.56;5017737;28;20049;-61
2022/01/17 02:34:11;;;;;;;35.03;20.15;;;;;;;7.51;90.41;102940.03;5030702;28;20057;-61
2022/01/17 02:36:39;;;;;;;38.03;20.48;;;;;;;7.63;90.27;102943.59;5030420;28;20054;-61
2022/01/17 02:39:06;;;;;;;36.67;21.25;;;;;;;7.56;90.58;102943.72;5016202;28;20404;-61
2022/01/17 02:41:35;;;;;;;32.67;19.95;;;;;;;7.54;90.81;102934.06;5014755;28;20053;-61
2022/01/17 02:44:03;;;;;;;35.63;20.17;;;;;;;7.64;90.18;102935.13;5015860;28;20050;-61
2022/01/17 02:46:30;;;;;;;31.45;19.50;;;;;;;7.53;90.44;102937.88;5016054;28;20054;-61
2022/01/17 02:48:59;;;;;;;37.15;21.40;;;;;;;7.59;90.14;102929.53;5029570;28;20057;-63
2022/01/17 02:51:27;;;;;;;36.97;20.98;;;;;;;7.35;91.00;102943.47;5015744;28;20057;-61
2022/01/17 02:53:55;;;;;;;37.17;21.63;;;;;;;7.70;90.51;102925.13;5027342;28;20542;-61
2022/01/17 02:56:22;;;;;;;31.58;19.90;;;;;;;7.89;89.81;102924.72;5032130;28;20448;-61
2022/01/17 02:58:50;;;;;;;34.15;20.08;;;;;;;7.51;89.68;102921.69;5034615;28;20060;-62
2022/01/17 03:01:21;;;;;;;38.55;21.60;;;;;;;7.47;90.69;102936.94;5034989;28;20069;-62
2022/01/17 03:03:48;;;;;;;37.47;22.00;;;;;;;7.59;90.71;102928.69;5034148;28;20053;-61
2022/01/17 03:06:16;;;;;;;37.13;21.95;;;;;;;7.64;90.20;102934.28;5035280;28;20056;-61
2022/01/17 03:08:44;;;;;;;37.05;21.77;;;;;;;7.58;90.22;102943.50;5035402;28;20053;-61
2022/01/17 03:11:14;;;;;;;41.97;21.42;;;;;;;7.41;90.71;102942.53;5035022;28;20053;-62
2022/01/17 03:13:42;;;;;;;40.42;21.63;;;;;;;7.53;90.94;102946.94;5035453;28;20053;-62
2022/01/17 03:16:14;;;;;;;42.88;24.05;;;;;;;7.75;90.52;102941.69;5033334;28;20076;-61
2022/01/17 03:18:44;;;;;;;42.15;22.92;;;;;;;7.47;90.86;102955.28;5035465;28;20049;-61
2022/01/17 03:21:14;;;;;;;40.20;22.50;;;;;;;7.61;91.19;102954.81;5025171;28;20041;-62
2022/01/17 03:23:42;;;;;;;;;;;;;;;7.84;89.56;102954.81;5015842;28;20065;-61
2022/01/17 03:26:09;;;;;;;42.22;22.23;;;;;;;7.62;89.98;102961.94;5013266;28;19940;-62
2022/01/17 03:28:37;;;;;;;41.85;23.67;;;;;;;7.53;91.15;102963.38;5015207;28;20054;-62
2022/01/17 03:31:05;;;;;;;39.70;22.67;;;;;;;7.46;91.52;102959.13;4997319;28;20390;-62
2022/01/17 03:33:32;;;;;;;42.60;23.20;;;;;;;7.33;92.37;102967.56;5025430;28;20062;-61
2022/01/17 03:36:00;;;;;;;42.70;24.23;;;;;;;7.30;93.31;102974.38;5013924;28;20053;-61
2022/01/17 03:38:30;;;;;;;43.38;23.08;;;;;;;7.39;92.47;102974.84;5014594;28;20054;-61
2022/01/17 03:40:59;;;;;;;40.55;23.35;;;;;;;7.44;92.10;102977.72;5014911;28;20405;-62
2022/01/17 03:43:27;;;;;;;40.53;23.48;;;;;;;7.21;93.11;102981.25;5015035;28;20046;-61
2022/01/17 03:45:57;;;;;;;39.08;24.08;;;;;;;7.00;94.53;102972.75;5014942;28;20505;-61
2022/01/17 03:48:26;;;;;;;48.60;24.42;;;;;;;7.05;96.07;102983.81;5034934;28;20095;-61
2022/01/17 03:50:55;;;;;;;42.90;24.20;;;;;;;7.12;95.41;102982.66;5034807;28;20060;-62
2022/01/17 03:53:23;;;;;;;39.58;24.00;;;;;;;7.19;95.23;102986.13;5033292;28;20050;-63
2022/01/17 03:55:52;;;;;;;49.67;26.02;;;;;;;7.13;95.42;102983.50;5033577;28;20042;-62
2022/01/17 03:58:21;;;;;;;46.03;24.77;;;;;;;7.29;95.12;102991.88;5034494;28;20061;-61
2022/01/17 04:00:49;;;;;;;40.45;24.13;;;;;;;7.40;94.53;102988.31;5034280;28;20045;-61
2022/01/17 04:03:17;;;;;;;40.50;24.20;;;;;;;7.43;93.70;103000.69;5034708;28;20049;-61
2022/01/17 04:05:45;;;;;;;43.70;24.40;;;;;;;7.37;93.97;103002.50;5033533;28;20049;-62
2022/01/17 04:08:13;;;;;;;38.38;23.15;;;;;;;7.44;93.42;103005.13;5034869;28;20428;-63
2022/01/17 04:10:40;;;;;;;41.40;23.38;;;;;;;7.25;93.58;103009.88;5034468;28;20052;-60
2022/01/17 04:13:09;;;;;;;40.50;23.75;;;;;;;7.13;94.60;103005.44;5034823;28;20050;-62
2022/01/17 04:15:36;;;;;;;38.75;23.85;;;;;;;7.36;93.90;103009.03;5035037;28;20049;-62
2022/01/17 04:18:06;;;;;;;38.08;22.92;;;;;;;7.69;92.56;103001.06;5033208;28;20064;-61
2022/01/17 04:20:34;;;;;;;37.97;22.95;;;;;;;7.39;92.79;103010.47;5029987;28;20046;-62
2022/01/17 04:23:06;;;;;;;36.00;23.35;;;;;;;7.40;92.46;103007.50;5034562;28;20050;-62
2022/01/17 04:25:35;;;;;;;37.00;22.00;;;;;;;7.41;93.51;103016.56;5034515;28;20440;-62
2022/01/17 04:28:04;;;;;;;37.00;21.70;;;;;;;7.47;92.19;103018.34;5033160;28;20053;-62
2022/01/17 04:30:31;;;;;;;38.90;22.80;;;;;;;7.59;91.97;103021.94;5033853;28;20037;-62
2022/01/17 04:32:59;;;;;;;35.38;21.65;;;;;;;7.44;91.65;103016.09;5033394;28;20065;-62
2022/01/17 04:35:28;;;;;;;36.78;21.45;;;;;;;7.48;91.73;103018.09;5033376;28;20503;-62
2022/01/17 04:37:59;;;;;;;32.30;20.05;;;;;;;7.47;90.74;103010.13;5033635;28;20053;-62
2022/01/17 04:40:34;;;;;;;32.72;21.42;;;;;;;7.31;90.83;103008.06;5033198;28;20050;-62
2022/01/17 04:43:05;;;;;;;35.97;21.70;;;;;;;7.41;91.68;103011.09;5034360;28;20068;-62
2022/01/17 04:45:32;;;;;;;30.20;18.83;;;;;;;7.39;90.10;103011.28;5032747;28;20054;-62
2022/01/17 04:48:00;;;;;;;24.60;14.90;;;;;;;6.83;88.44;103008.19;5034410;28;20053;-65
2022/01/17 04:50:28;;;;;;;18.38;13.70;;;;;;;6.94;88.57;103001.09;5035331;28;20068;-62
2022/01/17 04:52:58;;;;;;;20.60;14.57;;;;;;;7.19;87.81;103010.81;5038356;28;20088;-62
2022/01/17 04:55:25;;;;;;;;;;;;;;;7.34;86.48;103004.88;5037164;28;20096;-61
2022/01/17 04:57:56;;;;;;;29.58;15.63;;;;;;;7.34;86.35;103010.38;5038227;28;20000;-62
2022/01/17 05:00:23;;;;;;;;;;;;;;;7.57;85.83;103022.19;5038519;28;20046;-62
2022/01/17 05:02:50;;;;;;;21.88;12.10;;;;;;;7.60;83.01;103020.88;5038238;28;19921;-62
2022/01/17 05:05:18;;;;;;;22.88;12.60;;;;;;;7.58;83.00;103015.59;5036521;28;20049;-60
2022/01/17 05:07:45;;;;;;;24.15;14.35;;;;;;;7.81;82.80;103021.09;5036720;28;20080;-62
2022/01/17 05:10:15;;;;;;;19.52;11.80;;;;;;;7.70;81.23;103010.16;5037439;28;20045;-61
2022/01/17 05:12:44;;;;;;;14.18;9.45;;;;;;;7.63;81.31;103004.78;5037345;28;20057;-61
2022/01/17 05:15:36;;;;;;;19.60;12.07;;;;;;;7.43;81.92;103007.03;5037442;28;20045;-61
2022/01/17 05:20:39;;;;;;;20.98;13.55;;;;;;;7.63;82.02;103031.38;5037746;28;20060;-61
2022/01/17 05:23:07;;;;;;;22.60;14.35;;;;;;;7.58;82.84;103032.06;5036125;28;20058;-58
2022/01/17 05:25:35;;;;;;;22.55;14.77;;;;;;;7.60;83.58;103040.88;5036180;28;20053;-60
2022/01/17 05:28:03;;;;;;;27.67;17.70;;;;;;;7.68;83.96;103028.75;5037423;28;20053;-61
2022/01/17 05:30:31;;;;;;;31.67;16.27;;;;;;;7.85;83.88;103033.28;5037345;28;20049;-61
2022/01/17 05:32:58;;;;;;;25.20;16.35;;;;;;;7.77;84.42;103032.81;5037136;28;20060;-62
2022/01/17 05:35:25;;;;;;;25.38;17.30;;;;;;;8.05;84.37;103030.16;5037519;28;20088;-62
2022/01/17 05:37:53;;;;;;;27.17;18.42;;;;;;;8.20;83.52;103022.25;5037432;28;20046;-62
2022/01/17 05:40:20;;;;;;;28.58;17.77;;;;;;;8.00;83.87;103028.13;5037156;28;20412;-61
2022/01/17 05:42:47;;;;;;;30.02;18.25;;;;;;;8.06;84.21;103040.06;5036852;28;20049;-62
2022/01/17 05:45:16;;;;;;;27.80;17.73;;;;;;;8.10;84.06;103035.78;5037129;28;20053;-61
2022/01/17 05:47:44;;;;;;;29.75;18.38;;;;;;;8.21;83.49;103029.41;5036130;28;20060;-60
2022/01/17 05:50:12;;;;;;;32.40;18.88;;;;;;;8.22;83.37;103033.00;5035978;28;20045;-59
2022/01/17 05:52:40;;;;;;;30.27;19.00;;;;;;;8.31;82.76;103043.41;5037248;28;20049;-61
2022/01/17 05:55:11;;;;;;;26.17;17.35;;;;;;;8.33;82.25;103049.50;5036989;28;20054;-61
2022/01/17 05:57:39;;;;;;;26.98;18.30;;;;;;;8.39;82.47;103045.78;5036757;28;20068;-59
2022/01/17 06:00:10;;;;;;;27.65;17.88;;;;;;;8.11;82.52;103050.34;5036919;28;20149;-60
2022/01/17 06:02:37;;;;;;;28.73;17.52;;;;;;;7.90;83.85;103051.75;5035950;28;20053;-60
2022/01/17 06:05:05;;;;;;;26.70;17.90;;;;;;;7.81;84.34;103059.50;5035481;28;20072;-61
2022/01/17 06:07:32;;;;;;;27.90;17.80;;;;;;;7.93;84.16;103054.03;5019279;28;20072;-60
2022/01/17 06:10:00;;;;;;;27.63;17.77;;;;;;;8.13;83.47;103054.50;5036623;28;20046;-60
2022/01/17 06:12:27;;;;;;;27.90;17.13;;;;;;;7.94;82.68;103048.31;5036428;28;20057;-61
2022/01/17 06:14:54;;;;;;;23.48;17.05;;;;;;;8.02;82.97;103047.94;5034728;28;20069;-61
2022/01/17 06:17:22;;;;;;;26.58;17.55;;;;;;;8.02;82.64;103046.28;5035094;28;20413;-60
2022/01/17 06:19:49;;;;;;;24.95;18.20;;;;;;;8.20;82.30;103052.47;5036549;28;20046;-60
2022/01/17 06:22:16;;;;;;;27.48;17.60;;;;;;;8.36;81.73;103045.41;5025080;28;20049;-60
2022/01/17 06:24:44;;;;;;;26.95;17.45;;;;;;;8.41;80.90;103045.53;5016808;28;20485;-61
2022/01/17 06:27:12;;;;;;;26.92;18.05;;;;;;;8.33;80.86;103045.91;5016325;28;20496;-61
2022/01/17 06:29:39;;;;;;;31.50;18.92;;;;;;;7.80;81.89;103052.38;5015736;28;20053;-60
2022/01/17 06:32:07;;;;;;;28.60;19.13;;;;;;;8.02;82.45;103058.91;5032984;28;20057;-59
2022/01/17 06:34:56;;;;;;;32.38;19.00;;;;;;;8.01;81.29;103067.41;5036199;28;20096;-60
2022/01/17 06:37:24;;;;;;;27.88;18.20;;;;;;;8.05;81.27;103075.97;5036417;28;20068;-61
2022/01/17 06:39:52;;;;;;;29.08;18.90;;;;;;;7.92;82.20;103077.06;5036483;28;20041;-61
2022/01/17 06:42:21;;;;;;;28.98;18.80;;;;;;;7.78;82.49;103092.06;5035108;28;20072;-61
2022/01/17 06:44:51;;;;;;;33.50;18.67;;;;;;;7.74;82.31;103096.38;5036342;28;20046;-61
2022/01/17 06:47:18;;;;;;;30.88;18.92;;;;;;;7.87;81.93;103098.88;5036076;28;20045;-62
2022/01/17 06:49:46;;;;;;;29.75;19.08;;;;;;;7.55;82.57;103111.25;5036341;28;20052;-61
2022/01/17 06:52:13;;;;;;;31.35;19.13;;;;;;;7.33;84.45;103129.28;5035494;28;20053;-62
2022/01/17 06:54:41;;;;;;;31.30;18.52;;;;;;;7.23;84.58;103124.38;5037152;28;20060;-60
2022/01/17 06:57:08;;;;;;;30.75;18.33;;;;;;;7.38;84.32;103113.81;5028642;28;20049;-62
2022/01/17 06:59:35;;;;;;;28.45;18.70;;;;;;;7.35;84.08;103100.59;5023567;28;20132;-59
2022/01/17 07:02:03;;;;;;;28.45;18.45;;;;;;;7.39;84.37;103093.53;5033609;28;20042;-60
2022/01/17 07:04:30;;;;;;;31.52;18.63;;;;;;;7.47;83.85;103101.47;5034129;28;20389;-61
2022/01/17 07:06:57;;;;;;;34.53;22.27;;;;;;;7.87;83.52;103116.19;5034045;28;20053;-61
2022/01/17 07:09:25;;;;;;;29.17;19.08;;;;;;;7.88;84.15;103117.00;5033872;28;20064;-61
2022/01/17 07:11:53;;;;;;;27.35;17.35;;;;;;;7.82;83.87;103110.59;5034230;28;20099;-62
2022/01/17 07:14:20;;;;;;;30.00;18.50;;;;;;;7.80;82.83;103126.44;5033052;28;20491;-62
2022/01/17 07:16:48;;;;;;;27.45;18.30;;;;;;;7.54;83.77;103145.22;5034072;28;20045;-61
2022/01/17 07:19:15;;;;;;;28.60;19.42;;;;;;;7.44;84.08;103156.78;5014971;28;20053;-61
2022/01/17 07:21:42;;;;;;;29.25;18.23;;;;;;;7.69;83.60;103179.38;5030202;28;20080;-62
2022/01/17 07:24:29;;;;;;;28.70;17.60;;;;;;;7.73;83.51;103175.09;5030746;28;20053;-61
2022/01/17 07:26:57;;;;;;;28.05;18.95;;;;;;;7.60;82.97;103174.47;5033055;28;20056;-61
2022/01/17 07:29:26;;;;;;;32.15;19.58;;;;;;;7.60;83.05;103169.78;5033030;28;20049;-62
2022/01/17 07:31:54;;;;;;;30.10;19.10;;;;;;;7.53;83.84;103151.78;5033167;28;20041;-62
2022/01/17 07:34:22;;;;;;;30.92;20.30;;;;;;;7.64;83.09;103151.81;5033764;28;20432;-61
2022/01/17 07:36:49;;;;;;;34.90;20.00;;;;;;;7.68;83.12;103143.94;5033737;28;20595;-62
2022/01/17 07:39:16;;;;;;;30.38;19.88;;;;;;;7.58;83.50;103146.44;5029346;28;20049;-62
2022/01/17 07:41:44;;;;;;;34.08;21.75;;;;;;;7.50;83.69;103157.72;5032344;28;20072;-62
2022/01/17 07:44:19;;;;;;;32.72;21.35;;;;;;;7.20;84.58;103149.50;5029423;28;20421;-61
2022/01/17 07:46:55;;;;;;;40.20;21.73;;;;;;;7.28;84.31;103151.09;5031773;28;20124;-61
2022/01/17 07:49:23;;;;;;;30.95;21.58;;;;;;;7.23;84.66;103148.22;5032989;28;20056;-63
2022/01/17 07:51:59;;;;;;;41.42;26.70;;;;;;;7.45;84.57;103152.09;5029511;28;20042;-63
2022/01/17 07:54:29;;;;;;;33.80;22.50;;;;;;;7.06;85.44;103158.16;5033954;28;20053;-61
2022/01/17 07:56:57;;;;;;;39.20;22.70;;;;;;;6.92;86.22;103162.13;5031681;28;20056;-62
2022/01/17 07:59:25;;;;;;;39.67;23.38;;;;;;;6.98;86.14;103174.88;5032800;28;20068;-62
2022/01/17 08:01:53;;;;;;;36.80;22.25;;;;;;;7.11;85.95;103172.00;5034586;28;20042;-62
2022/01/17 08:04:21;;;;;;;35.15;23.35;;;;;;;7.10;85.97;103165.66;5033342;28;20064;-62
2022/01/17 08:06:51;;;;;;;36.95;23.33;;;;;;;7.34;85.26;103167.44;5033453;28;20052;-62
2022/01/17 08:09:21;;;;;;;37.90;24.02;;;;;;;7.52;84.15;103181.09;5042265;28;20285;-63
2022/01/17 08:12:04;;;;;;;41.15;25.15;;;;;;;7.44;84.02;103165.00;5042082;28;20049;-63
2022/01/17 08:14:31;;;;;;;38.28;24.02;;;;;;;7.43;83.75;103176.16;5033171;28;20061;-63
2022/01/17 08:16:59;;;;;;;38.65;23.85;;;;;;;7.35;84.57;103169.13;5033820;28;20049;-62
2022/01/17 08:19:26;;;;;;;39.92;24.38;;;;;;;7.55;83.93;103172.41;5031868;28;20053;-62
2022/01/17 08:22:03;;;;;;;44.03;25.08;;;;;;;7.39;84.20;103177.72;5030903;28;20049;-61
2022/01/17 08:24:34;;;;;;;42.05;25.67;;;;;;;7.20;84.22;103185.13;5034560;28;20057;-62
2022/01/17 08:27:02;;;;;;;43.35;25.83;;;;;;;7.42;84.23;103186.31;5037126;28;20049;-62
2022/01/17 08:29:30;;;;;;;43.22;25.98;;;;;;;7.52;83.60;103203.03;5035237;28;20064;-63
2022/01/17 08:31:59;;;;;;;40.13;24.70;;;;;;;7.54;83.58;103181.72;5031153;28;20057;-61
2022/01/17 08:34:27;;;;;;;36.72;24.55;;;;;;;7.50;83.46;103180.50;5030344;28;20049;-62
2022/01/17 08:36:54;;;;;;;37.50;25.50;;;;;;;7.46;83.60;103186.69;5035211;28;20068;-61
2022/01/17 08:39:23;;;;;;;41.78;26.83;;;;;;;7.38;83.68;103184.25;5021144;28;20076;-62
2022/01/17 08:41:52;;;;;;;40.63;26.77;;;;;;;7.58;83.40;103187.56;5031064;28;20042;-61
2022/01/17 08:44:20;;;;;;;41.13;25.25;;;;;;;7.68;82.42;103196.91;5035087;28;20519;-61
2022/01/17 08:46:47;;;;;;;42.78;26.52;;;;;;;7.58;83.57;103204.84;5035559;28;20053;-61
2022/01/17 08:49:16;;;;;;;41.38;26.10;;;;;;;7.21;84.49;103207.91;5034900;28;20053;-62
2022/01/17 08:51:46;;;;;;;40.53;26.13;;;;;;;6.97;86.04;103200.63;5034573;28;20052;-62
2022/01/17 08:54:13;;;;;;;42.45;26.25;;;;;;;6.98;86.65;103199.53;5032834;28;20044;-62
2022/01/17 08:56:41;;;;;;;45.08;26.17;;;;;;;7.08;86.67;103200.69;5034917;28;20395;-62
2022/01/17 08:59:08;;;;;;;43.92;26.70;;;;;;;7.08;86.54;103213.56;5035629;28;20073;-62
2022/01/17 09:01:35;;;;;;;53.58;27.48;;;;;;;7.21;86.56;103211.50;5033796;28;20045;-62
2022/01/17 09:04:03;;;;;;;48.65;26.52;;;;;;;7.18;86.00;103211.97;5029512;28;20041;-62
2022/01/17 09:06:30;;;;;;;40.67;26.35;;;;;;;7.10;86.85;103223.22;5029788;28;20071;-62
2022/01/17 09:08:58;;;;;;;41.55;26.50;;;;;;;7.18;87.09;103209.22;5032281;28;20056;-63
2022/01/17 09:11:25;;;;;;;43.47;26.52;;;;;;;7.27;86.08;103210.56;5035945;28;20057;-62
2022/01/17 09:13:53;;;;;;;36.67;24.77;;;;;;;7.38;85.89;103218.00;5033428;28;20050;-65
2022/01/17 09:16:21;;;;;;;42.78;25.33;;;;;;;7.47;85.60;103218.53;5030479;28;20069;-62
2022/01/17 09:18:48;;;;;;;41.65;25.88;;;;;;;7.41;85.67;103228.50;5036970;28;20049;-64
2022/01/17 09:21:16;;;;;;;40.80;25.35;;;;;;;7.29;86.08;103237.72;5035033;28;20053;-62
2022/01/17 09:23:44;;;;;;;43.47;25.30;;;;;;;7.38;86.08;103239.09;5028134;28;20058;-62
2022/01/17 09:26:13;;;;;;;53.58;27.48;;;;;;;7.61;85.44;103247.44;5041766;28;20057;-63
2022/01/17 09:28:41;;;;;;;41.53;26.05;;;;;;;7.77;84.13;103261.34;5040418;28;20056;-63
2022/01/17 09:31:08;;;;;;;40.60;25.63;;;;;;;7.37;85.51;103273.06;5037300;28;20056;-62
2022/01/17 09:33:36;;;;;;;39.40;25.35;;;;;;;6.83;87.58;103282.94;5031233;28;20065;-63
2022/01/17 09:36:04;;;;;;;40.38;26.67;;;;;;;6.89;88.68;103283.94;5035728;28;20054;-62
2022/01/17 09:38:31;;;;;;;45.95;27.20;;;;;;;6.98;88.80;103289.97;5019178;28;20155;-65
2022/01/17 09:41:00;;;;;;;42.60;26.48;;;;;;;6.99;88.22;103284.25;5032667;28;20069;-63
2022/01/17 09:43:41;;;;;;;40.55;25.92;;;;;;;7.36;87.14;103283.19;5026252;28;20064;-62
2022/01/17 09:46:09;;;;;;;38.85;24.48;;;;;;;7.43;86.27;103274.88;5034915;28;20053;-63
2022/01/17 09:48:39;;;;;;;38.67;24.65;;;;;;;7.54;85.53;103271.38;5023385;28;20054;-63
2022/01/17 09:51:20;;;;;;;37.63;23.55;;;;;;;7.84;86.41;103262.09;5035477;28;20041;-63
2022/01/17 09:53:51;;;;;;;40.50;25.67;;;;;;;7.72;84.57;103269.41;5035090;28;20054;-61
2022/01/17 09:56:21;;;;;;;39.42;24.40;;;;;;;7.89;84.61;103269.63;5028009;28;20058;-62
2022/01/17 09:58:50;;;;;;;37.15;23.92;;;;;;;7.97;84.06;103275.59;5030358;28;20057;-62
2022/01/17 10:01:17;;;;;;;41.35;24.40;;;;;;;7.71;84.20;103278.72;5038071;28;20431;-62
2022/01/17 10:03:46;;;;;;;37.17;24.73;;;;;;;7.69;84.32;103296.47;5056571;28;20069;-63
2022/01/17 10:06:13;;;;;;;38.13;25.85;;;;;;;7.42;85.34;103306.97;5043249;28;20056;-64
2022/01/17 10:08:41;;;;;;;36.83;25.17;;;;;;;7.57;85.59;103315.63;5031106;28;20048;-63
2022/01/17 10:11:16;;;;;;;37.90;25.13;;;;;;;7.77;85.11;103318.13;5035049;28;20496;-63
2022/01/17 10:13:45;;;;;;;37.83;23.77;;;;;;;8.19;83.81;103311.59;5032246;28;20076;-62
2022/01/17 10:16:13;;;;;;;;;;;;;;;8.33;82.19;103307.63;5033714;28;20049;-63
2022/01/17 10:18:51;;;;;;;35.67;23.40;;;;;;;8.16;80.98;103305.75;5026648;28;20419;-62
2022/01/17 10:21:59;;;;;;;41.70;23.80;;;;;;;8.11;81.39;103311.91;5033565;28;20045;-63
2022/01/17 10:27:26;;;;;;;35.53;23.70;;;;;;;8.17;80.50;103301.91;5022581;28;20049;-63
2022/01/17 10:30:32;;;;;;;33.08;23.42;;;;;;;8.13;81.43;103301.53;5032674;28;20096;-61
2022/01/17 10:35:36;;;;;;;38.03;23.73;;;;;;;8.08;81.69;103306.91;5021129;28;20050;-63
2022/01/17 10:38:10;;;;;;;34.80;23.70;;;;;;;8.10;82.11;103302.03;5028680;28;20065;-62
2022/01/17 10:41:07;;;;;;;34.60;23.55;;;;;;;8.24;82.16;103314.50;5035593;28;20060;-63
2022/01/17 10:43:38;;;;;;;37.95;25.15;;;;;;;8.28;81.42;103334.09;5031409;28;20072;-63
2022/01/17 10:46:09;;;;;;;37.25;24.90;;;;;;;8.37;81.03;103322.53;5044073;28;20042;-64
2022/01/17 10:48:43;;;;;;;37.47;24.17;;;;;;;8.61;80.93;103318.75;5031234;28;20065;-63
2022/01/17 10:51:12;;;;;;;35.13;23.45;;;;;;;8.89;79.55;103318.06;5032716;28;20041;-62
2022/01/17 10:53:41;;;;;;;34.10;23.10;;;;;;;8.68;79.46;103318.66;5034700;28;20405;-63
2022/01/17 10:56:13;;;;;;;38.60;23.13;;;;;;;8.70;79.29;103300.84;5037039;28;20049;-64
2022/01/17 10:58:41;;;;;;;36.58;24.08;;;;;;;8.45;79.32;103300.22;5035467;28;20171;-62
2022/01/17 11:01:11;;;;;;;42.28;26.98;;;;;;;7.98;81.58;103290.19;5033291;28;20068;-62
2022/01/17 11:03:39;;;;;;;;;;;;;;;7.92;83.43;103286.44;5034094;28;20515;-62
2022/01/17 11:06:10;;;;;;;40.92;25.33;;;;;;;7.89;83.20;103277.84;5033514;28;19921;-63
2022/01/17 11:08:38;;;;;;;;;;;;;;;8.11;82.54;103270.75;5034279;28;20566;-62
2022/01/17 11:11:10;;;;;;;43.88;25.40;;;;;;;8.39;81.73;103257.22;5035096;28;19921;-65
2022/01/17 11:13:42;;;;;;;42.60;26.80;;;;;;;8.58;80.94;103264.28;5034336;28;20050;-66
2022/01/17 11:16:13;;;;;;;44.42;27.02;;;;;;;8.59;79.88;103268.72;5030291;28;20147;-63
2022/01/17 11:18:44;;;;;;;40.92;26.77;;;;;;;8.41;81.25;103259.72;5032617;28;20056;-63
2022/01/17 11:21:14;;;;;;;45.58;28.20;;;;;;;8.30;81.55;103266.06;5034668;28;20053;-62
2022/01/17 11:23:43;;;;;;;;;;;;;;;8.43;81.96;103255.69;5032481;28;20172;-62
2022/01/17 11:26:11;;;;;;;36.47;24.88;;;;;;;8.58;81.36;103260.69;5020429;28;19929;-63
2022/01/17 11:28:40;;;;;;;43.17;25.52;;;;;;;8.26;81.49;103265.69;5033018;28;20057;-63
2022/01/17 11:31:12;;;;;;;36.40;24.77;;;;;;;8.33;82.04;103265.56;5031540;28;20048;-63
2022/01/17 11:33:40;;;;;;;37.65;25.50;;;;;;;8.49;81.24;103265.69;5034709;28;20060;-63
2022/01/17 11:36:07;;;;;;;39.00;26.60;;;;;;;8.61;80.56;103255.56;5032418;28;20065;-62
2022/01/17 11:38:42;;;;;;;38.33;25.15;;;;;;;8.76;80.19;103249.59;5035515;28;20060;-62
2022/01/17 11:41:34;;;;;;;36.20;24.92;;;;;;;8.84;80.06;103257.47;5033042;28;20101;-63
2022/01/17 11:44:06;;;;;;;46.88;31.63;;;;;;;8.75;79.99;103251.50;5002952;28;20042;-62
2022/01/17 11:46:54;;;;;;;41.70;27.63;;;;;;;8.87;80.15;103244.06;5033963;28;20064;-62
2022/01/17 11:49:30;;;;;;;39.47;28.92;;;;;;;8.54;80.19;103254.03;5033527;28;20060;-62
2022/01/17 11:51:58;;;;;;;39.92;26.80;;;;;;;8.98;79.64;103254.22;5030168;28;20050;-63
2022/01/17 11:54:28;;;;;;;43.63;28.08;;;;;;;8.74;79.33;103244.34;4997459;28;20049;-61
2022/01/17 11:57:02;;;;;;;;;;;;;;;8.98;79.50;103259.72;5022770;28;20046;-62